sensor_id;sensor_type;location;lat;lon;timestamp;temperature;humidity
58413;DHT22;44209;52.952;6.790;2022-12-07T00:01:24;3.90;99.90
58413;DHT22;44209;52.952;6.790;2022-12-07T00:03:52;3.80;99.90
58413;DHT22;44209;52.952;6.790;2022-12-07T00:06:19;3.80;99.90
58413;DHT22;44209;52.952;6.790;2022-12-07T00:08:46;3.80;99.90
58413;DHT22;44209;52.952;6.790;2022-12-07T00:11:19;3.80;99.90
58413;DHT22;44209;52.952;6.790;2022-12-07T00:13:46;3.80;99.90
58413;DHT22;44209;52.952;6.790;2022-12-07T00:16:16;3.70;99.90
58413;DHT22;44209;52.952;6.790;2022-12-07T00:18:43;3.70;99.90
58413;DHT22;44209;52.952;6.790;2022-12-07T00:21:18;3.70;99.90
58413;DHT22;44209;52.952;6.790;2022-12-07T00:23:46;3.80;99.90
58413;DHT22;44209;52.952;6.790;2022-12-07T00:26:14;3.80;99.90
58413;DHT22;44209;52.952;6.790;2022-12-07T00:28:40;3.80;99.90
58413;DHT22;44209;52.952;6.790;2022-12-07T00:31:11;3.80;99.90
58413;DHT22;44209;52.952;6.790;2022-12-07T00:33:37;3.80;99.90
58413;DHT22;44209;52.952;6.790;2022-12-07T00:36:06;3.80;99.90
58413;DHT22;44209;52.952;6.790;2022-12-07T00:38:34;3.80;99.90
58413;DHT22;44209;52.952;6.790;2022-12-07T00:41:02;3.80;99.90
58413;DHT22;44209;52.952;6.790;2022-12-07T00:43:29;3.80;99.90
58413;DHT22;44209;52.952;6.790;2022-12-07T00:45:57;3.80;99.90
58413;DHT22;44209;52.952;6.790;2022-12-07T00:48:24;3.80;99.90
58413;DHT22;44209;52.952;6.790;2022-12-07T00:50:49;3.80;99.90
58413;DHT22;44209;52.952;6.790;2022-12-07T00:53:16;3.80;99.90
58413;DHT22;44209;52.952;6.790;2022-12-07T00:55:42;3.80;99.90
58413;DHT22;44209;52.952;6.790;2022-12-07T00:58:08;3.80;99.90
58413;DHT22;44209;52.952;6.790;2022-12-07T01:00:36;3.80;99.90
58413;DHT22;44209;52.952;6.790;2022-12-07T01:03:03;3.80;99.90
58413;DHT22;44209;52.952;6.790;2022-12-07T01:05:28;3.70;99.90
58413;DHT22;44209;52.952;6.790;2022-12-07T01:07:54;3.70;99.90
58413;DHT22;44209;52.952;6.790;2022-12-07T01:10:20;3.70;99.90
58413;DHT22;44209;52.952;6.790;2022-12-07T01:12:46;3.70;99.90
58413;DHT22;44209;52.952;6.790;2022-12-07T01:15:12;3.70;99.90
58413;DHT22;44209;52.952;6.790;2022-12-07T01:17:37;3.70;99.90
58413;DHT22;44209;52.952;6.790;2022-12-07T01:20:03;3.70;99.90
58413;DHT22;44209;52.952;6.790;2022-12-07T01:22:29;3.60;99.90
58413;DHT22;44209;52.952;6.790;2022-12-07T01:24:55;3.60;99.90
58413;DHT22;44209;52.952;6.790;2022-12-07T01:27:21;3.60;99.90
58413;DHT22;44209;52.952;6.790;2022-12-07T01:29:46;3.60;99.90
58413;DHT22;44209;52.952;6.790;2022-12-07T01:32:12;3.60;99.90
58413;DHT22;44209;52.952;6.790;2022-12-07T01:34:38;3.60;99.90
58413;DHT22;44209;52.952;6.790;2022-12-07T01:37:04;3.60;99.90
58413;DHT22;44209;52.952;6.790;2022-12-07T01:39:29;3.60;99.90
58413;DHT22;44209;52.952;6.790;2022-12-07T01:41:55;3.60;99.90
58413;DHT22;44209;52.952;6.790;2022-12-07T01:44:24;3.60;99.90
58413;DHT22;44209;52.952;6.790;2022-12-07T01:47:08;3.60;99.90
58413;DHT22;44209;52.952;6.790;2022-12-07T01:49:37;3.50;99.90
58413;DHT22;44209;52.952;6.790;2022-12-07T01:54:43;3.60;99.90
58413;DHT22;44209;52.952;6.790;2022-12-07T01:57:10;3.50;99.90
58413;DHT22;44209;52.952;6.790;2022-12-07T01:59:36;3.50;99.90
58413;DHT22;44209;52.952;6.790;2022-12-07T02:02:07;3.50;99.90
58413;DHT22;44209;52.952;6.790;2022-12-07T02:04:35;3.50;99.90
58413;DHT22;44209;52.952;6.790;2022-12-07T02:07:02;3.40;99.90
58413;DHT22;44209;52.952;6.790;2022-12-07T02:09:28;3.40;99.90
58413;DHT22;44209;52.952;6.790;2022-12-07T02:11:54;3.40;99.90
58413;DHT22;44209;52.952;6.790;2022-12-07T02:14:21;3.50;99.90
58413;DHT22;44209;52.952;6.790;2022-12-07T02:27:56;3.60;99.90
58413;DHT22;44209;52.952;6.790;2022-12-07T02:30:28;3.60;99.90
58413;DHT22;44209;52.952;6.790;2022-12-07T02:32:58;3.60;99.90
58413;DHT22;44209;52.952;6.790;2022-12-07T02:35:34;3.60;99.90
58413;DHT22;44209;52.952;6.790;2022-12-07T02:40:50;3.60;99.90
58413;DHT22;44209;52.952;6.790;2022-12-07T02:43:21;3.60;99.90
58413;DHT22;44209;52.952;6.790;2022-12-07T02:45:50;3.60;99.90
58413;DHT22;44209;52.952;6.790;2022-12-07T02:48:19;3.60;99.90
58413;DHT22;44209;52.952;6.790;2022-12-07T02:50:48;3.60;99.90
58413;DHT22;44209;52.952;6.790;2022-12-07T02:53:41;3.60;99.90
58413;DHT22;44209;52.952;6.790;2022-12-07T02:56:11;3.60;99.90
58413;DHT22;44209;52.952;6.790;2022-12-07T03:06:53;3.50;99.90
58413;DHT22;44209;52.952;6.790;2022-12-07T03:12:16;3.50;99.90
58413;DHT22;44209;52.952;6.790;2022-12-07T03:14:55;3.50;99.90
58413;DHT22;44209;52.952;6.790;2022-12-07T03:17:29;3.60;99.90
58413;DHT22;44209;52.952;6.790;2022-12-07T03:20:00;3.60;99.90
58413;DHT22;44209;52.952;6.790;2022-12-07T03:22:30;3.70;99.90
58413;DHT22;44209;52.952;6.790;2022-12-07T03:25:08;3.70;99.90
58413;DHT22;44209;52.952;6.790;2022-12-07T03:27:43;3.70;99.90
58413;DHT22;44209;52.952;6.790;2022-12-07T03:30:12;3.80;99.90
58413;DHT22;44209;52.952;6.790;2022-12-07T03:33:24;3.80;99.90
58413;DHT22;44209;52.952;6.790;2022-12-07T03:35:52;3.80;99.90
58413;DHT22;44209;52.952;6.790;2022-12-07T03:38:30;3.80;99.90
58413;DHT22;44209;52.952;6.790;2022-12-07T03:41:04;3.80;99.90
58413;DHT22;44209;52.952;6.790;2022-12-07T03:43:32;3.80;99.90
58413;DHT22;44209;52.952;6.790;2022-12-07T03:51:57;3.80;99.90
58413;DHT22;44209;52.952;6.790;2022-12-07T03:54:33;3.80;99.90
58413;DHT22;44209;52.952;6.790;2022-12-07T03:57:02;3.80;99.90
58413;DHT22;44209;52.952;6.790;2022-12-07T03:59:28;3.80;99.90
58413;DHT22;44209;52.952;6.790;2022-12-07T04:01:57;3.80;99.90
58413;DHT22;44209;52.952;6.790;2022-12-07T04:04:26;3.80;99.90
58413;DHT22;44209;52.952;6.790;2022-12-07T04:06:52;3.90;99.90
58413;DHT22;44209;52.952;6.790;2022-12-07T04:09:17;3.90;99.90
58413;DHT22;44209;52.952;6.790;2022-12-07T04:11:43;3.90;99.90
58413;DHT22;44209;52.952;6.790;2022-12-07T04:14:09;3.90;99.90
58413;DHT22;44209;52.952;6.790;2022-12-07T04:16:55;3.90;99.90
58413;DHT22;44209;52.952;6.790;2022-12-07T04:19:24;3.90;99.90
58413;DHT22;44209;52.952;6.790;2022-12-07T04:21:50;3.90;99.90
58413;DHT22;44209;52.952;6.790;2022-12-07T04:24:16;3.90;99.90
58413;DHT22;44209;52.952;6.790;2022-12-07T04:26:42;3.90;99.90
58413;DHT22;44209;52.952;6.790;2022-12-07T04:29:09;3.90;99.90
58413;DHT22;44209;52.952;6.790;2022-12-07T04:31:36;3.90;99.90
58413;DHT22;44209;52.952;6.790;2022-12-07T04:34:02;3.90;99.90
58413;DHT22;44209;52.952;6.790;2022-12-07T04:36:28;3.80;99.90
58413;DHT22;44209;52.952;6.790;2022-12-07T04:38:54;3.80;99.90
58413;DHT22;44209;52.952;6.790;2022-12-07T04:41:21;3.80;99.90
58413;DHT22;44209;52.952;6.790;2022-12-07T04:43:56;3.70;99.90
58413;DHT22;44209;52.952;6.790;2022-12-07T04:46:23;3.70;99.90
58413;DHT22;44209;52.952;6.790;2022-12-07T04:48:49;3.60;99.90
58413;DHT22;44209;52.952;6.790;2022-12-07T04:51:26;3.60;99.90
58413;DHT22;44209;52.952;6.790;2022-12-07T04:53:53;3.50;99.90
58413;DHT22;44209;52.952;6.790;2022-12-07T04:56:19;3.50;99.90
58413;DHT22;44209;52.952;6.790;2022-12-07T04:58:46;3.40;99.90
58413;DHT22;44209;52.952;6.790;2022-12-07T05:01:13;3.40;99.90
58413;DHT22;44209;52.952;6.790;2022-12-07T05:03:38;3.40;99.90
58413;DHT22;44209;52.952;6.790;2022-12-07T05:06:04;3.30;99.90
58413;DHT22;44209;52.952;6.790;2022-12-07T05:08:32;3.30;99.90
58413;DHT22;44209;52.952;6.790;2022-12-07T05:10:58;3.30;99.90
58413;DHT22;44209;52.952;6.790;2022-12-07T05:13:24;3.30;99.90
58413;DHT22;44209;52.952;6.790;2022-12-07T05:15:50;3.30;99.90
58413;DHT22;44209;52.952;6.790;2022-12-07T05:18:16;3.30;99.90
58413;DHT22;44209;52.952;6.790;2022-12-07T05:20:42;3.20;99.90
58413;DHT22;44209;52.952;6.790;2022-12-07T05:23:08;3.20;99.90
58413;DHT22;44209;52.952;6.790;2022-12-07T05:25:34;3.30;99.90
58413;DHT22;44209;52.952;6.790;2022-12-07T05:28:00;3.30;99.90
58413;DHT22;44209;52.952;6.790;2022-12-07T05:30:26;3.30;99.90
58413;DHT22;44209;52.952;6.790;2022-12-07T05:32:52;3.30;99.90
58413;DHT22;44209;52.952;6.790;2022-12-07T05:35:18;3.40;99.90
58413;DHT22;44209;52.952;6.790;2022-12-07T05:37:44;3.30;99.90
58413;DHT22;44209;52.952;6.790;2022-12-07T05:40:10;3.30;99.90
58413;DHT22;44209;52.952;6.790;2022-12-07T05:42:36;3.30;99.90
58413;DHT22;44209;52.952;6.790;2022-12-07T05:45:03;3.20;99.90
58413;DHT22;44209;52.952;6.790;2022-12-07T05:47:29;3.20;99.90
58413;DHT22;44209;52.952;6.790;2022-12-07T05:49:54;3.20;99.90
58413;DHT22;44209;52.952;6.790;2022-12-07T05:52:20;3.20;99.90
58413;DHT22;44209;52.952;6.790;2022-12-07T05:54:46;3.10;99.90
58413;DHT22;44209;52.952;6.790;2022-12-07T05:57:12;3.10;99.90
58413;DHT22;44209;52.952;6.790;2022-12-07T05:59:37;3.10;99.90
58413;DHT22;44209;52.952;6.790;2022-12-07T06:02:09;3.10;99.90
58413;DHT22;44209;52.952;6.790;2022-12-07T06:04:36;3.10;99.90
58413;DHT22;44209;52.952;6.790;2022-12-07T06:07:03;3.00;99.90
58413;DHT22;44209;52.952;6.790;2022-12-07T06:09:29;3.00;99.90
58413;DHT22;44209;52.952;6.790;2022-12-07T06:11:56;2.90;99.90
58413;DHT22;44209;52.952;6.790;2022-12-07T06:14:40;2.90;99.90
58413;DHT22;44209;52.952;6.790;2022-12-07T06:17:07;3.00;99.90
58413;DHT22;44209;52.952;6.790;2022-12-07T06:19:32;3.00;99.90
58413;DHT22;44209;52.952;6.790;2022-12-07T06:21:59;3.00;99.90
58413;DHT22;44209;52.952;6.790;2022-12-07T06:24:25;2.90;99.90
58413;DHT22;44209;52.952;6.790;2022-12-07T06:26:51;2.90;99.90
58413;DHT22;44209;52.952;6.790;2022-12-07T06:29:17;2.90;99.90
58413;DHT22;44209;52.952;6.790;2022-12-07T06:31:43;2.90;99.90
58413;DHT22;44209;52.952;6.790;2022-12-07T06:34:12;2.90;99.90
58413;DHT22;44209;52.952;6.790;2022-12-07T06:36:38;2.90;99.90
58413;DHT22;44209;52.952;6.790;2022-12-07T06:39:04;2.90;99.90
58413;DHT22;44209;52.952;6.790;2022-12-07T06:41:31;2.90;99.90
58413;DHT22;44209;52.952;6.790;2022-12-07T06:43:56;2.80;99.90
58413;DHT22;44209;52.952;6.790;2022-12-07T06:46:23;2.80;99.90
58413;DHT22;44209;52.952;6.790;2022-12-07T06:48:49;2.80;99.90
58413;DHT22;44209;52.952;6.790;2022-12-07T06:51:14;2.90;99.90
58413;DHT22;44209;52.952;6.790;2022-12-07T06:53:40;2.90;99.90
58413;DHT22;44209;52.952;6.790;2022-12-07T06:56:06;3.00;99.90
58413;DHT22;44209;52.952;6.790;2022-12-07T06:58:32;3.00;99.90
58413;DHT22;44209;52.952;6.790;2022-12-07T07:00:58;3.00;99.90
58413;DHT22;44209;52.952;6.790;2022-12-07T07:03:24;3.10;99.90
58413;DHT22;44209;52.952;6.790;2022-12-07T07:05:49;3.10;99.90
58413;DHT22;44209;52.952;6.790;2022-12-07T07:08:15;3.10;99.90
58413;DHT22;44209;52.952;6.790;2022-12-07T07:10:41;3.20;99.90
58413;DHT22;44209;52.952;6.790;2022-12-07T07:13:08;3.20;99.90
58413;DHT22;44209;52.952;6.790;2022-12-07T07:15:34;3.20;99.90
58413;DHT22;44209;52.952;6.790;2022-12-07T07:18:00;3.20;99.90
58413;DHT22;44209;52.952;6.790;2022-12-07T07:20:25;3.20;99.90
58413;DHT22;44209;52.952;6.790;2022-12-07T07:22:54;3.20;99.90
58413;DHT22;44209;52.952;6.790;2022-12-07T07:25:20;3.10;99.90
58413;DHT22;44209;52.952;6.790;2022-12-07T07:27:46;3.10;99.90
58413;DHT22;44209;52.952;6.790;2022-12-07T07:30:11;3.10;99.90
58413;DHT22;44209;52.952;6.790;2022-12-07T07:32:37;3.10;99.90
58413;DHT22;44209;52.952;6.790;2022-12-07T07:35:03;3.10;99.90
58413;DHT22;44209;52.952;6.790;2022-12-07T07:37:29;3.00;99.90
58413;DHT22;44209;52.952;6.790;2022-12-07T07:39:55;3.00;99.90
58413;DHT22;44209;52.952;6.790;2022-12-07T07:42:20;3.00;99.90
58413;DHT22;44209;52.952;6.790;2022-12-07T07:44:46;3.00;99.90
58413;DHT22;44209;52.952;6.790;2022-12-07T07:47:12;3.00;99.90
58413;DHT22;44209;52.952;6.790;2022-12-07T07:49:37;3.10;99.90
58413;DHT22;44209;52.952;6.790;2022-12-07T07:52:05;3.10;99.90
58413;DHT22;44209;52.952;6.790;2022-12-07T07:54:31;3.10;99.90
58413;DHT22;44209;52.952;6.790;2022-12-07T07:56:57;3.20;99.90
58413;DHT22;44209;52.952;6.790;2022-12-07T07:59:23;3.30;99.90
58413;DHT22;44209;52.952;6.790;2022-12-07T08:01:50;3.40;99.90
58413;DHT22;44209;52.952;6.790;2022-12-07T08:04:15;3.40;99.90
58413;DHT22;44209;52.952;6.790;2022-12-07T08:06:41;3.40;99.90
58413;DHT22;44209;52.952;6.790;2022-12-07T08:09:08;3.40;99.90
58413;DHT22;44209;52.952;6.790;2022-12-07T08:11:34;3.40;99.90
58413;DHT22;44209;52.952;6.790;2022-12-07T08:14:00;3.30;99.90
58413;DHT22;44209;52.952;6.790;2022-12-07T08:16:26;3.40;99.90
58413;DHT22;44209;52.952;6.790;2022-12-07T08:18:52;3.30;99.90
58413;DHT22;44209;52.952;6.790;2022-12-07T08:21:17;3.30;99.90
58413;DHT22;44209;52.952;6.790;2022-12-07T08:23:43;3.30;99.90
58413;DHT22;44209;52.952;6.790;2022-12-07T08:26:11;3.30;99.90
58413;DHT22;44209;52.952;6.790;2022-12-07T08:28:37;3.20;99.90
58413;DHT22;44209;52.952;6.790;2022-12-07T08:31:06;3.20;99.90
58413;DHT22;44209;52.952;6.790;2022-12-07T08:33:32;3.20;99.90
58413;DHT22;44209;52.952;6.790;2022-12-07T08:36:03;3.20;99.90
58413;DHT22;44209;52.952;6.790;2022-12-07T08:38:29;3.20;99.90
58413;DHT22;44209;52.952;6.790;2022-12-07T08:40:55;3.20;99.90
58413;DHT22;44209;52.952;6.790;2022-12-07T08:43:22;3.30;99.90
58413;DHT22;44209;52.952;6.790;2022-12-07T08:45:53;3.30;99.90
58413;DHT22;44209;52.952;6.790;2022-12-07T08:48:20;3.30;99.90
58413;DHT22;44209;52.952;6.790;2022-12-07T08:50:50;3.30;99.90
58413;DHT22;44209;52.952;6.790;2022-12-07T08:53:16;3.40;99.90
58413;DHT22;44209;52.952;6.790;2022-12-07T08:55:44;3.50;99.90
58413;DHT22;44209;52.952;6.790;2022-12-07T08:58:10;3.60;99.90
58413;DHT22;44209;52.952;6.790;2022-12-07T09:00:36;3.70;99.90
58413;DHT22;44209;52.952;6.790;2022-12-07T09:03:01;3.80;99.90
58413;DHT22;44209;52.952;6.790;2022-12-07T09:05:27;3.90;99.90
58413;DHT22;44209;52.952;6.790;2022-12-07T09:07:56;3.90;99.90
58413;DHT22;44209;52.952;6.790;2022-12-07T09:10:22;3.90;99.90
58413;DHT22;44209;52.952;6.790;2022-12-07T09:12:49;4.00;99.90
58413;DHT22;44209;52.952;6.790;2022-12-07T09:15:14;3.90;99.90
58413;DHT22;44209;52.952;6.790;2022-12-07T09:17:40;3.90;99.90
58413;DHT22;44209;52.952;6.790;2022-12-07T09:20:06;3.90;99.90
58413;DHT22;44209;52.952;6.790;2022-12-07T09:22:32;4.00;99.90
58413;DHT22;44209;52.952;6.790;2022-12-07T09:24:59;4.00;99.90
58413;DHT22;44209;52.952;6.790;2022-12-07T09:27:25;4.00;99.90
58413;DHT22;44209;52.952;6.790;2022-12-07T09:29:51;4.00;99.90
58413;DHT22;44209;52.952;6.790;2022-12-07T09:32:17;4.10;99.90
58413;DHT22;44209;52.952;6.790;2022-12-07T09:34:43;4.10;99.90
58413;DHT22;44209;52.952;6.790;2022-12-07T09:37:08;4.20;99.90
58413;DHT22;44209;52.952;6.790;2022-12-07T09:39:37;4.30;99.90
58413;DHT22;44209;52.952;6.790;2022-12-07T09:42:04;4.40;99.90
58413;DHT22;44209;52.952;6.790;2022-12-07T09:44:30;4.50;99.90
58413;DHT22;44209;52.952;6.790;2022-12-07T09:46:56;4.50;99.90
58413;DHT22;44209;52.952;6.790;2022-12-07T09:49:24;4.60;99.90
58413;DHT22;44209;52.952;6.790;2022-12-07T09:52:24;4.60;99.90
58413;DHT22;44209;52.952;6.790;2022-12-07T09:54:51;4.70;99.90
58413;DHT22;44209;52.952;6.790;2022-12-07T09:57:19;4.70;99.90
58413;DHT22;44209;52.952;6.790;2022-12-07T09:59:48;4.70;99.90
58413;DHT22;44209;52.952;6.790;2022-12-07T10:05:30;4.80;99.90
58413;DHT22;44209;52.952;6.790;2022-12-07T10:07:58;4.80;99.90
58413;DHT22;44209;52.952;6.790;2022-12-07T10:10:30;4.80;99.90
58413;DHT22;44209;52.952;6.790;2022-12-07T10:13:06;4.70;99.90
58413;DHT22;44209;52.952;6.790;2022-12-07T10:15:59;4.70;99.90
58413;DHT22;44209;52.952;6.790;2022-12-07T10:18:35;4.70;99.90
58413;DHT22;44209;52.952;6.790;2022-12-07T10:21:17;4.80;99.90
58413;DHT22;44209;52.952;6.790;2022-12-07T10:26:33;4.80;99.90
58413;DHT22;44209;52.952;6.790;2022-12-07T10:29:02;4.70;99.90
58413;DHT22;44209;52.952;6.790;2022-12-07T10:31:30;4.70;99.90
58413;DHT22;44209;52.952;6.790;2022-12-07T10:33:58;4.70;99.90
58413;DHT22;44209;52.952;6.790;2022-12-07T10:36:36;4.70;99.90
58413;DHT22;44209;52.952;6.790;2022-12-07T10:41:35;4.80;99.90
58413;DHT22;44209;52.952;6.790;2022-12-07T10:44:01;4.80;99.90
58413;DHT22;44209;52.952;6.790;2022-12-07T10:46:48;4.80;99.90
58413;DHT22;44209;52.952;6.790;2022-12-07T11:00:44;4.90;99.90
58413;DHT22;44209;52.952;6.790;2022-12-07T11:06:34;5.00;99.90
58413;DHT22;44209;52.952;6.790;2022-12-07T11:11:47;5.10;99.90
58413;DHT22;44209;52.952;6.790;2022-12-07T11:14:48;5.20;99.90
58413;DHT22;44209;52.952;6.790;2022-12-07T11:17:26;5.10;99.90
58413;DHT22;44209;52.952;6.790;2022-12-07T11:23:29;5.10;99.90
58413;DHT22;44209;52.952;6.790;2022-12-07T11:25:53;5.20;99.90
58413;DHT22;44209;52.952;6.790;2022-12-07T11:29:01;5.20;99.90
58413;DHT22;44209;52.952;6.790;2022-12-07T11:34:12;5.30;99.90
58413;DHT22;44209;52.952;6.790;2022-12-07T11:36:49;5.30;99.90
58413;DHT22;44209;52.952;6.790;2022-12-07T11:41:47;5.30;99.90
58413;DHT22;44209;52.952;6.790;2022-12-07T11:44:47;5.20;99.90
58413;DHT22;44209;52.952;6.790;2022-12-07T12:03:56;4.60;99.90
58413;DHT22;44209;52.952;6.790;2022-12-07T12:06:23;4.50;99.90
58413;DHT22;44209;52.952;6.790;2022-12-07T12:11:48;4.60;99.90
58413;DHT22;44209;52.952;6.790;2022-12-07T12:22:37;4.90;99.90
58413;DHT22;44209;52.952;6.790;2022-12-07T12:25:07;5.00;99.90
58413;DHT22;44209;52.952;6.790;2022-12-07T12:27:39;5.10;99.90
58413;DHT22;44209;52.952;6.790;2022-12-07T12:30:23;5.20;99.90
58413;DHT22;44209;52.952;6.790;2022-12-07T12:32:50;5.30;99.90
58413;DHT22;44209;52.952;6.790;2022-12-07T12:35:30;5.40;99.90
58413;DHT22;44209;52.952;6.790;2022-12-07T12:40:50;5.50;99.90
58413;DHT22;44209;52.952;6.790;2022-12-07T12:43:39;5.50;99.90
58413;DHT22;44209;52.952;6.790;2022-12-07T12:54:28;5.50;99.90
58413;DHT22;44209;52.952;6.790;2022-12-07T13:02:46;5.40;99.90
58413;DHT22;44209;52.952;6.790;2022-12-07T13:10:37;5.50;99.90
58413;DHT22;44209;52.952;6.790;2022-12-07T13:20:56;5.40;99.90
58413;DHT22;44209;52.952;6.790;2022-12-07T13:23:29;5.40;99.90
58413;DHT22;44209;52.952;6.790;2022-12-07T13:31:31;5.40;99.90
58413;DHT22;44209;52.952;6.790;2022-12-07T13:33:58;5.30;99.90
58413;DHT22;44209;52.952;6.790;2022-12-07T13:36:38;5.30;99.90
58413;DHT22;44209;52.952;6.790;2022-12-07T13:41:43;5.20;99.90
58413;DHT22;44209;52.952;6.790;2022-12-07T13:44:12;5.10;99.90
58413;DHT22;44209;52.952;6.790;2022-12-07T13:46:59;5.10;99.90
58413;DHT22;44209;52.952;6.790;2022-12-07T13:49:29;5.10;99.90
58413;DHT22;44209;52.952;6.790;2022-12-07T13:52:06;5.00;99.90
58413;DHT22;44209;52.952;6.790;2022-12-07T13:54:32;4.90;99.90
58413;DHT22;44209;52.952;6.790;2022-12-07T13:56:58;4.90;99.90
58413;DHT22;44209;52.952;6.790;2022-12-07T13:59:25;4.80;99.90
58413;DHT22;44209;52.952;6.790;2022-12-07T14:01:52;4.80;99.90
58413;DHT22;44209;52.952;6.790;2022-12-07T14:04:31;4.80;99.90
58413;DHT22;44209;52.952;6.790;2022-12-07T14:06:58;4.80;99.90
58413;DHT22;44209;52.952;6.790;2022-12-07T14:09:26;4.70;99.90
58413;DHT22;44209;52.952;6.790;2022-12-07T14:11:54;4.70;99.90
58413;DHT22;44209;52.952;6.790;2022-12-07T14:14:26;4.70;99.90
58413;DHT22;44209;52.952;6.790;2022-12-07T14:17:20;4.70;99.90
58413;DHT22;44209;52.952;6.790;2022-12-07T14:19:51;4.60;99.90
58413;DHT22;44209;52.952;6.790;2022-12-07T14:22:28;4.60;99.90
58413;DHT22;44209;52.952;6.790;2022-12-07T14:27:46;4.60;99.90
58413;DHT22;44209;52.952;6.790;2022-12-07T14:30:16;4.50;99.90
58413;DHT22;44209;52.952;6.790;2022-12-07T14:32:43;4.50;99.90
58413;DHT22;44209;52.952;6.790;2022-12-07T14:35:15;4.50;99.90
58413;DHT22;44209;52.952;6.790;2022-12-07T14:37:43;4.50;99.90
58413;DHT22;44209;52.952;6.790;2022-12-07T14:40:20;4.50;99.90
58413;DHT22;44209;52.952;6.790;2022-12-07T14:42:48;4.50;99.90
58413;DHT22;44209;52.952;6.790;2022-12-07T14:45:19;4.40;99.90
58413;DHT22;44209;52.952;6.790;2022-12-07T14:47:45;4.40;99.90
58413;DHT22;44209;52.952;6.790;2022-12-07T14:50:13;4.40;99.90
58413;DHT22;44209;52.952;6.790;2022-12-07T14:52:40;4.40;99.90
58413;DHT22;44209;52.952;6.790;2022-12-07T14:57:47;4.30;99.90
58413;DHT22;44209;52.952;6.790;2022-12-07T15:00:15;4.20;99.90
58413;DHT22;44209;52.952;6.790;2022-12-07T15:02:43;4.20;99.90
58413;DHT22;44209;52.952;6.790;2022-12-07T15:05:08;4.10;99.90
58413;DHT22;44209;52.952;6.790;2022-12-07T15:07:35;4.10;99.90
58413;DHT22;44209;52.952;6.790;2022-12-07T15:10:01;4.10;99.90
58413;DHT22;44209;52.952;6.790;2022-12-07T15:12:27;4.10;99.90
58413;DHT22;44209;52.952;6.790;2022-12-07T15:14:53;4.10;99.90
58413;DHT22;44209;52.952;6.790;2022-12-07T15:17:19;4.10;99.90
58413;DHT22;44209;52.952;6.790;2022-12-07T15:19:44;4.10;99.90
58413;DHT22;44209;52.952;6.790;2022-12-07T15:22:10;4.10;99.90
58413;DHT22;44209;52.952;6.790;2022-12-07T15:24:36;4.10;99.90
58413;DHT22;44209;52.952;6.790;2022-12-07T15:27:02;4.10;99.90
58413;DHT22;44209;52.952;6.790;2022-12-07T15:29:28;4.10;99.90
58413;DHT22;44209;52.952;6.790;2022-12-07T15:31:55;4.10;99.90
58413;DHT22;44209;52.952;6.790;2022-12-07T15:34:21;4.10;99.90
58413;DHT22;44209;52.952;6.790;2022-12-07T15:36:51;4.10;99.90
58413;DHT22;44209;52.952;6.790;2022-12-07T15:39:21;4.10;99.90
58413;DHT22;44209;52.952;6.790;2022-12-07T15:41:50;4.10;99.90
58413;DHT22;44209;52.952;6.790;2022-12-07T15:44:15;4.10;99.90
58413;DHT22;44209;52.952;6.790;2022-12-07T15:47:00;4.10;99.90
58413;DHT22;44209;52.952;6.790;2022-12-07T15:49:26;4.10;99.90
58413;DHT22;44209;52.952;6.790;2022-12-07T15:51:52;4.10;99.90
58413;DHT22;44209;52.952;6.790;2022-12-07T15:54:21;4.00;99.90
58413;DHT22;44209;52.952;6.790;2022-12-07T15:56:48;4.00;99.90
58413;DHT22;44209;52.952;6.790;2022-12-07T15:59:13;4.00;99.90
58413;DHT22;44209;52.952;6.790;2022-12-07T16:01:39;4.00;99.90
58413;DHT22;44209;52.952;6.790;2022-12-07T16:04:05;3.90;99.90
58413;DHT22;44209;52.952;6.790;2022-12-07T16:06:31;3.90;99.90
58413;DHT22;44209;52.952;6.790;2022-12-07T16:08:56;3.90;99.90
58413;DHT22;44209;52.952;6.790;2022-12-07T16:11:22;3.90;99.90
58413;DHT22;44209;52.952;6.790;2022-12-07T16:13:49;3.80;99.90
58413;DHT22;44209;52.952;6.790;2022-12-07T16:16:16;3.80;99.90
58413;DHT22;44209;52.952;6.790;2022-12-07T16:18:43;3.80;99.90
58413;DHT22;44209;52.952;6.790;2022-12-07T16:21:09;3.80;99.90
58413;DHT22;44209;52.952;6.790;2022-12-07T16:23:35;3.80;99.90
58413;DHT22;44209;52.952;6.790;2022-12-07T16:26:21;3.80;99.90
58413;DHT22;44209;52.952;6.790;2022-12-07T16:28:50;3.80;99.90
58413;DHT22;44209;52.952;6.790;2022-12-07T16:31:19;3.70;99.90
58413;DHT22;44209;52.952;6.790;2022-12-07T16:33:45;3.70;99.90
58413;DHT22;44209;52.952;6.790;2022-12-07T16:36:12;3.70;99.90
58413;DHT22;44209;52.952;6.790;2022-12-07T16:38:38;3.70;99.90
58413;DHT22;44209;52.952;6.790;2022-12-07T16:41:08;3.70;99.90
58413;DHT22;44209;52.952;6.790;2022-12-07T16:43:34;3.70;99.90
58413;DHT22;44209;52.952;6.790;2022-12-07T16:46:00;3.70;99.90
58413;DHT22;44209;52.952;6.790;2022-12-07T16:48:26;3.70;99.90
58413;DHT22;44209;52.952;6.790;2022-12-07T16:50:52;3.70;99.90
58413;DHT22;44209;52.952;6.790;2022-12-07T16:53:20;3.70;99.90
58413;DHT22;44209;52.952;6.790;2022-12-07T16:55:46;3.70;99.90
58413;DHT22;44209;52.952;6.790;2022-12-07T16:58:14;3.70;99.90
58413;DHT22;44209;52.952;6.790;2022-12-07T17:00:40;3.70;99.90
58413;DHT22;44209;52.952;6.790;2022-12-07T17:03:06;3.70;99.90
58413;DHT22;44209;52.952;6.790;2022-12-07T17:05:32;3.70;99.90
58413;DHT22;44209;52.952;6.790;2022-12-07T17:07:58;3.80;99.90
58413;DHT22;44209;52.952;6.790;2022-12-07T17:10:25;3.80;99.90
58413;DHT22;44209;52.952;6.790;2022-12-07T17:12:51;3.70;99.90
58413;DHT22;44209;52.952;6.790;2022-12-07T17:15:17;3.80;99.90
58413;DHT22;44209;52.952;6.790;2022-12-07T17:17:56;3.80;99.90
58413;DHT22;44209;52.952;6.790;2022-12-07T17:20:24;3.80;99.90
58413;DHT22;44209;52.952;6.790;2022-12-07T17:22:50;3.80;99.90
58413;DHT22;44209;52.952;6.790;2022-12-07T17:25:16;3.80;99.90
58413;DHT22;44209;52.952;6.790;2022-12-07T17:27:42;3.90;99.90
58413;DHT22;44209;52.952;6.790;2022-12-07T17:30:08;3.90;99.90
58413;DHT22;44209;52.952;6.790;2022-12-07T17:32:34;3.90;99.90
58413;DHT22;44209;52.952;6.790;2022-12-07T17:35:00;3.90;99.90
58413;DHT22;44209;52.952;6.790;2022-12-07T17:37:26;3.90;99.90
58413;DHT22;44209;52.952;6.790;2022-12-07T17:39:52;3.80;99.90
58413;DHT22;44209;52.952;6.790;2022-12-07T17:42:21;3.80;99.90
58413;DHT22;44209;52.952;6.790;2022-12-07T17:45:07;3.80;99.90
58413;DHT22;44209;52.952;6.790;2022-12-07T17:47:35;3.70;99.90
58413;DHT22;44209;52.952;6.790;2022-12-07T17:50:01;3.70;99.90
58413;DHT22;44209;52.952;6.790;2022-12-07T17:52:26;3.70;99.90
58413;DHT22;44209;52.952;6.790;2022-12-07T17:55:11;3.70;99.90
58413;DHT22;44209;52.952;6.790;2022-12-07T17:57:37;3.70;99.90
58413;DHT22;44209;52.952;6.790;2022-12-07T18:00:04;3.70;99.90
58413;DHT22;44209;52.952;6.790;2022-12-07T18:02:31;3.70;99.90
58413;DHT22;44209;52.952;6.790;2022-12-07T18:04:56;3.70;99.90
58413;DHT22;44209;52.952;6.790;2022-12-07T18:07:22;3.70;99.90
58413;DHT22;44209;52.952;6.790;2022-12-07T18:09:48;3.70;99.90
58413;DHT22;44209;52.952;6.790;2022-12-07T18:12:13;3.70;99.90
58413;DHT22;44209;52.952;6.790;2022-12-07T18:14:39;3.70;99.90